Time;durP1;ratioP1;P1;durP2;ratioP2;P2;SDS_P1;SDS_P2;PMS_P1;PMS_P2;Temp;Humidity;BMP_temperature;BMP_pressure;BME280_temperature;BME280_humidity;BME280_pressure;Samples;Min_cycle;Max_cycle;Signal;HPM_P1;HPM_P2
2024/02/12 00:00:23;;;;;;;;;;;;;;;;;;5049460;28;19929;-69
2024/02/12 00:02:50;;;;;;;;;;;;;;;;;;5049133;28;19929;-69
2024/02/12 00:05:16;;;;;;;;;;;;;;;;;;5047660;28;20399;-69
2024/02/12 00:07:44;;;;;;;;;;;;;;;;;;5048856;28;19935;-69
2024/02/12 00:10:12;;;;;;;;;;;;;;;;;;5048602;28;20403;-69
2024/02/12 00:12:39;;;;;;;;;;;;;;;;;;5048153;28;19928;-69
2024/02/12 00:15:07;;;;;;;;;;;;;;;;;;5048802;28;19929;-69
2024/02/12 00:17:36;;;;;;;;;;;;;;;;;;5042749;28;20415;-69
2024/02/12 00:20:06;;;;;;;;;;;;;;;;;;5048334;28;19979;-69
2024/02/12 00:22:33;;;;;;;;;;;;;;;;;;5048015;28;19928;-69
2024/02/12 00:25:00;;;;;;;;;;;;;;;;;;5050668;28;19975;-69
2024/02/12 00:27:28;;;;;;;;;;;;;;;;;;5048212;28;20027;-69
2024/02/12 00:29:55;;;;;;;;;;;;;;;;;;5048124;28;19929;-69
2024/02/12 00:32:22;;;;;;;;;;;;;;;;;;5047997;28;20031;-69
2024/02/12 00:34:49;;;;;;;;;;;;;;;;;;5046760;28;19932;-69
2024/02/12 00:37:16;;;;;;;;;;;;;;;;;;5048345;28;20335;-69
2024/02/12 00:39:43;;;;;;;;;;;;;;;;;;5058426;28;19983;-69
2024/02/12 00:42:12;;;;;;;;;;;;;;;;;;5048401;28;20115;-69
2024/02/12 00:44:39;;;;;;;;;;;;;;;;;;5045246;28;20388;-69
2024/02/12 00:47:06;;;;;;;;;;;;;;;;;;5047847;28;20509;-69
2024/02/12 00:49:33;;;;;;;;;;;;;;;;;;5046797;28;20015;-69
2024/02/12 00:52:02;;;;;;;;;;;;;;;;;;5047117;28;19928;-68
2024/02/12 00:54:32;;;;;;;;;;;;;;;;;;5048686;28;19929;-69
2024/02/12 00:57:00;;;;;;;;;;;;;;;;;;5048491;28;20398;-69
2024/02/12 00:59:27;;;;;;;;;;;;;;;;;;5044647;28;20025;-69
2024/02/12 01:01:55;;;;;;;;;;;;;;;;;;5041870;28;19928;-69
2024/02/12 01:04:22;;;;;;;;;;;;;;;;;;5048290;28;19936;-68
2024/02/12 01:06:49;;;;;;;;;;;;;;;;;;5047990;28;19932;-69
2024/02/12 01:09:16;;;;;;;;;;;;;;;;;;5046175;28;20459;-68
2024/02/12 01:11:43;;;;;;;;;;;;;;;;;;5047956;28;19974;-68
2024/02/12 01:14:10;;;;;;;;;;;;;;;;;;5047613;28;20677;-68
2024/02/12 01:16:37;;;;;;;;;;;;;;;;;;5048617;28;19971;-68
2024/02/12 01:19:04;;;;;;;;;;;;;;;;;;5046965;28;20446;-68
2024/02/12 01:21:33;;;;;;;;;;;;;;;;;;5044439;28;19932;-68
2024/02/12 01:24:00;;;;;;;;;;;;;;;;;;5047282;28;19928;-68
2024/02/12 01:26:28;;;;;;;;;;;;;;;;;;5043917;28;19960;-68
2024/02/12 01:28:56;;;;;;;;;;;;;;;;;;5046841;28;20027;-68
2024/02/12 01:31:23;;;;;;;;;;;;;;;;;;5051782;28;19959;-68
2024/02/12 01:33:52;;;;;;;;;;;;;;;;;;5051261;28;20031;-68
2024/02/12 01:36:19;;;;;;;;;;;;;;;;;;5060745;28;19935;-69
2024/02/12 01:38:46;;;;;;;;;;;;;;;;;;5051816;28;20027;-68
2024/02/12 01:41:16;;;;;;;;;;;;;;;;;;5051252;28;19929;-68
2024/02/12 01:43:43;;;;;;;;;;;;;;;;;;5049815;28;19982;-69
2024/02/12 01:46:11;;;;;;;;;;;;;;;;;;5052034;28;20031;-68
2024/02/12 01:48:38;;;;;;;;;;;;;;;;;;5051072;28;20012;-68
2024/02/12 01:51:07;;;;;;;;;;;;;;;;;;5051270;28;20016;-68
2024/02/12 01:53:34;;;;;;;;;;;;;;;;;;5050561;28;19968;-68
2024/02/12 01:56:01;;;;;;;;;;;;;;;;;;5051569;28;20019;-68
2024/02/12 01:58:30;;;;;;;;;;;;;;;;;;5049145;28;19929;-69
2024/02/12 02:00:57;;;;;;;;;;;;;;;;;;5050234;28;19998;-68
2024/02/12 02:03:24;;;;;;;;;;;;;;;;;;5049706;28;19965;-67
2024/02/12 02:05:52;;;;;;;;;;;;;;;;;;5050778;28;20789;-68
2024/02/12 02:08:19;;;;;;;;;;;;;;;;;;5050626;28;20019;-68
2024/02/12 02:10:48;;;;;;;;;;;;;;;;;;5050607;28;20327;-68
2024/02/12 02:13:15;;;;;;;;;;;;;;;;;;5054474;28;20337;-68
2024/02/12 02:15:42;;;;;;;;;;;;;;;;;;5048037;28;19929;-68
2024/02/12 02:18:09;;;;;;;;;;;;;;;;;;5050454;28;19983;-68
2024/02/12 02:20:36;;;;;;;;;;;;;;;;;;5049998;28;20412;-68
2024/02/12 02:23:04;;;;;;;;;;;;;;;;;;5051363;28;19929;-67
2024/02/12 02:25:31;;;;;;;;;;;;;;;;;;5049243;28;19928;-68
2024/02/12 02:27:58;;;;;;;;;;;;;;;;;;5050175;28;20042;-67
2024/02/12 02:30:25;;;;;;;;;;;;;;;;;;5049380;28;20303;-67
2024/02/12 02:32:52;;;;;;;;;;;;;;;;;;5050063;28;19986;-67
2024/02/12 02:35:19;;;;;;;;;;;;;;;;;;5049258;28;20390;-68
2024/02/12 02:37:46;;;;;;;;;;;;;;;;;;5051736;28;19935;-67
2024/02/12 02:40:13;;;;;;;;;;;;;;;;;;5059378;28;19928;-67
2024/02/12 02:42:40;;;;;;;;;;;;;;;;;;5050454;28;20295;-68
2024/02/12 02:45:07;;;;;;;;;;;;;;;;;;5048630;28;20020;-67
2024/02/12 02:47:36;;;;;;;;;;;;;;;;;;5046783;28;19979;-67
2024/02/12 02:50:04;;;;;;;;;;;;;;;;;;5048792;28;19929;-68
2024/02/12 02:52:32;;;;;;;;;;;;;;;;;;5050532;28;20151;-68
2024/02/12 02:54:59;;;;;;;;;;;;;;;;;;5049662;28;19932;-69
2024/02/12 02:57:27;;;;;;;;;;;;;;;;;;5050825;28;20019;-68
2024/02/12 02:59:54;;;;;;;;;;;;;;;;;;5050312;28;19935;-68
2024/02/12 03:02:21;;;;;;;;;;;;;;;;;;5050036;28;20443;-67
2024/02/12 03:04:48;;;;;;;;;;;;;;;;;;5047972;28;19964;-68
2024/02/12 03:07:16;;;;;;;;;;;;;;;;;;5049128;28;19929;-67
2024/02/12 03:09:43;;;;;;;;;;;;;;;;;;5049895;28;20356;-67
2024/02/12 03:12:10;;;;;;;;;;;;;;;;;;5049022;28;19935;-68
2024/02/12 03:14:39;;;;;;;;;;;;;;;;;;5049860;28;19935;-67
2024/02/12 03:17:06;;;;;;;;;;;;;;;;;;5056172;28;19929;-68
2024/02/12 03:19:33;;;;;;;;;;;;;;;;;;5048239;28;19971;-68
2024/02/12 03:22:00;;;;;;;;;;;;;;;;;;5049373;28;19998;-68
2024/02/12 03:24:28;;;;;;;;;;;;;;;;;;5049981;28;20016;-69
2024/02/12 03:26:56;;;;;;;;;;;;;;;;;;5049068;28;19932;-68
2024/02/12 03:29:24;;;;;;;;;;;;;;;;;;5048416;28;20054;-69
2024/02/12 03:31:51;;;;;;;;;;;;;;;;;;5049757;28;19929;-68
2024/02/12 03:34:18;;;;;;;;;;;;;;;;;;5048798;28;20491;-68
2024/02/12 03:36:45;;;;;;;;;;;;;;;;;;5048798;28;20350;-69
2024/02/12 03:39:13;;;;;;;;;;;;;;;;;;5049762;28;19933;-68
2024/02/12 03:41:40;;;;;;;;;;;;;;;;;;5041922;28;20467;-68
2024/02/12 03:44:09;;;;;;;;;;;;;;;;;;5045531;28;20027;-68
2024/02/12 03:46:39;;;;;;;;;;;;;;;;;;5048159;28;19929;-68
2024/02/12 04:00:16;;;;;;;;;;;;;;;;;;5047878;28;19924;-68
2024/02/12 04:02:43;;;;;;;;;;;;;;;;;;5048583;28;20488;-69
2024/02/12 04:05:10;;;;;;;;;;;;;;;;;;5048887;28;19935;-68
2024/02/12 04:07:38;;;;;;;;;;;;;;;;;;5048653;28;19929;-68
2024/02/12 04:10:07;;;;;;;;;;;;;;;;;;5048546;28;19928;-67
2024/02/12 04:12:34;;;;;;;;;;;;;;;;;;5048500;28;19931;-69
2024/02/12 04:15:13;;;;;;;;;;;;;;;;;;5109918;27;20386;-68
2024/02/12 04:17:40;;;;;;;;;;;;;;;;;;5107926;28;19928;-68
2024/02/12 04:20:10;;;;;;;;;;;;;;;;;;5105202;28;19927;-68
2024/02/12 04:22:37;;;;;;;;;;;;;;;;;;5123636;28;19928;-68
2024/02/12 04:25:04;;;;;;;;;;;;;;;;;;5122036;28;20816;-68
2024/02/12 04:27:33;;;;;;;;;;;;;;;;;;5117134;28;19934;-68
2024/02/12 04:30:00;;;;;;;;;;;;;;;;;;5114183;28;19927;-68
2024/02/12 04:32:27;;;;;;;;;;;;;;;;;;5111619;28;20003;-68
2024/02/12 04:34:56;;;;;;;;;;;;;;;;;;5100823;28;20362;-67
2024/02/12 04:37:23;;;;;;;;;;;;;;;;;;5115070;28;20307;-68
2024/02/12 04:39:50;;;;;;;;;;;;;;;;;;5109311;28;19928;-67
2024/02/12 04:42:18;;;;;;;;;;;;;;;;;;5109748;28;19935;-67
2024/02/12 04:44:46;;;;;;;;;;;;;;;;;;5111183;28;20390;-68
2024/02/12 04:47:13;;;;;;;;;;;;;;;;;;5105902;28;19928;-67
2024/02/12 04:49:40;;;;;;;;;;;;;;;;;;5104161;28;19971;-68
2024/02/12 04:52:08;;;;;;;;;;;;;;;;;;5108606;28;19927;-67
2024/02/12 04:54:36;;;;;;;;;;;;;;;;;;5119581;28;19997;-68
2024/02/12 04:57:03;;;;;;;;;;;;;;;;;;5107162;28;20300;-68
2024/02/12 04:59:30;;;;;;;;;;;;;;;;;;5116478;28;20061;-68
2024/02/12 05:01:57;;;;;;;;;;;;;;;;;;5114820;28;20026;-69
2024/02/12 05:04:24;;;;;;;;;;;;;;;;;;5117597;28;20260;-68
2024/02/12 05:06:51;;;;;;;;;;;;;;;;;;5105328;28;19934;-68
2024/02/12 05:09:19;;;;;;;;;;;;;;;;;;5109316;28;20371;-67
2024/02/12 05:11:46;;;;;;;;;;;;;;;;;;5112966;28;20047;-67
2024/02/12 05:14:13;;;;;;;;;;;;;;;;;;5107129;28;19953;-68
2024/02/12 05:16:45;;;;;;;;;;;;;;;;;;5098214;28;19928;-68
2024/02/12 05:24:41;;;;;;;;;;;;;;;;;;5096449;28;19969;-68
2024/02/12 05:27:08;;;;;;;;;;;;;;;;;;5099626;28;19924;-68
2024/02/12 05:29:37;;;;;;;;;;;;;;;;;;5086660;28;19968;-68
2024/02/12 05:32:05;;;;;;;;;;;;;;;;;;5082255;28;19928;-68
2024/02/12 05:34:33;;;;;;;;;;;;;;;;;;5087988;28;19935;-67
2024/02/12 05:37:00;;;;;;;;;;;;;;;;;;5088326;28;20390;-68
2024/02/12 05:39:27;;;;;;;;;;;;;;;;;;5084849;28;20011;-68
2024/02/12 05:41:54;;;;;;;;;;;;;;;;;;5088110;28;20184;-67
2024/02/12 05:44:21;;;;;;;;;;;;;;;;;;5083635;28;20461;-68
2024/02/12 05:46:49;;;;;;;;;;;;;;;;;;5090360;28;19935;-69
2024/02/12 05:49:16;;;;;;;;;;;;;;;;;;5077272;28;20383;-68
2024/02/12 05:51:44;;;;;;;;;;;;;;;;;;5088913;28;19990;-69
2024/02/12 05:54:11;;;;;;;;;;;;;;;;;;5072903;28;19951;-68
2024/02/12 05:56:39;;;;;;;;;;;;;;;;;;5075942;28;19927;-69
2024/02/12 05:59:07;;;;;;;;;;;;;;;;;;5086734;28;20438;-69
2024/02/12 06:01:34;;;;;;;;;;;;;;;;;;5080275;28;19932;-69
2024/02/12 06:04:01;;;;;;;;;;;;;;;;;;5084108;28;20022;-68
2024/02/12 06:06:28;;;;;;;;;;;;;;;;;;5070574;28;20016;-68
2024/02/12 06:08:55;;;;;;;;;;;;;;;;;;5070727;28;20001;-69
2024/02/12 06:11:22;;;;;;;;;;;;;;;;;;5071256;28;20027;-68
2024/02/12 06:13:49;;;;;;;;;;;;;;;;;;5082551;28;19981;-68
2024/02/12 06:16:16;;;;;;;;;;;;;;;;;;5090590;28;19988;-68
2024/02/12 06:18:44;;;;;;;;;;;;;;;;;;5086892;28;20394;-68
2024/02/12 06:21:11;;;;;;;;;;;;;;;;;;5083115;28;19928;-68
2024/02/12 06:23:38;;;;;;;;;;;;;;;;;;5086069;28;19928;-68
2024/02/12 06:26:05;;;;;;;;;;;;;;;;;;5080504;28;20031;-69
2024/02/12 06:28:32;;;;;;;;;;;;;;;;;;5085669;28;19928;-64
2024/02/12 06:30:59;;;;;;;;;;;;;;;;;;5078159;28;19928;-69
2024/02/12 06:33:26;;;;;;;;;;;;;;;;;;5084690;28;20002;-68
2024/02/12 06:35:53;;;;;;;;;;;;;;;;;;5082849;28;20019;-68
2024/02/12 06:38:20;;;;;;;;;;;;;;;;;;5070866;28;19932;-68
2024/02/12 06:40:48;;;;;;;;;;;;;;;;;;5080228;28;19991;-69
2024/02/12 06:43:15;;;;;;;;;;;;;;;;;;5085220;28;19981;-68
2024/02/12 06:45:42;;;;;;;;;;;;;;;;;;5076969;28;19933;-69
2024/02/12 06:48:09;;;;;;;;;;;;;;;;;;5080969;28;19960;-68
2024/02/12 06:50:36;;;;;;;;;;;;;;;;;;5080229;28;20356;-67
2024/02/12 06:53:04;;;;;;;;;;;;;;;;;;5080711;28;19974;-68
2024/02/12 06:55:31;;;;;;;;;;;;;;;;;;5073509;28;19928;-68
2024/02/12 06:57:58;;;;;;;;;;;;;;;;;;5081266;28;19929;-68
2024/02/12 07:00:25;;;;;;;;;;;;;;;;;;5080052;28;20615;-68
2024/02/12 07:02:54;;;;;;;;;;;;;;;;;;5076124;28;19929;-69
2024/02/12 07:05:21;;;;;;;;;;;;;;;;;;5079693;28;20534;-68
2024/02/12 07:07:48;;;;;;;;;;;;;;;;;;5085862;28;20284;-68
2024/02/12 07:10:15;;;;;;;;;;;;;;;;;;5086532;28;19955;-68
2024/02/12 07:12:42;;;;;;;;;;;;;;;;;;5076025;28;20043;-66
2024/02/12 07:15:09;;;;;;;;;;;;;;;;;;5085462;28;20367;-66
2024/02/12 07:17:36;;;;;;;;;;;;;;;;;;5081734;28;19928;-66
2024/02/12 07:20:03;;;;;;;;;;;;;;;;;;5078146;28;19935;-67
2024/02/12 07:22:30;;;;;;;;;;;;;;;;;;5077378;28;19932;-66
2024/02/12 07:24:57;;;;;;;;;;;;;;;;;;5079600;28;19932;-66
2024/02/12 07:27:24;;;;;;;;;;;;;;;;;;5070334;28;20014;-67
2024/02/12 07:29:51;;;;;;;;;;;;;;;;;;5078188;28;19924;-67
2024/02/12 07:32:19;;;;;;;;;;;;;;;;;;5079303;28;20361;-67
2024/02/12 07:34:47;;;;;;;;;;;;;;;;;;5091438;28;20041;-65
2024/02/12 07:37:14;;;;;;;;;;;;;;;;;;5078807;28;20026;-66
2024/02/12 07:39:41;;;;;;;;;;;;;;;;;;5068948;28;20051;-66
2024/02/12 07:42:08;;;;;;;;;;;;;;;;;;5079193;28;19934;-67
2024/02/12 07:44:35;;;;;;;;;;;;;;;;;;5077250;28;19936;-67
2024/02/12 07:47:05;;;;;;;;;;;;;;;;;;5084559;28;19966;-66
2024/02/12 07:49:32;;;;;;;;;;;;;;;;;;5081807;28;19931;-66
2024/02/12 07:51:59;;;;;;;;;;;;;;;;;;5084862;28;20018;-65
2024/02/12 07:54:26;;;;;;;;;;;;;;;;;;5080522;28;19928;-66
2024/02/12 07:56:54;;;;;;;;;;;;;;;;;;5082016;28;19971;-66
2024/02/12 07:59:21;;;;;;;;;;;;;;;;;;5084132;28;19928;-67
2024/02/12 08:01:48;;;;;;;;;;;;;;;;;;5074140;28;20318;-67
2024/02/12 08:04:15;;;;;;;;;;;;;;;;;;5082300;28;19954;-67
2024/02/12 08:06:42;;;;;;;;;;;;;;;;;;5077712;28;20459;-67
2024/02/12 08:09:10;;;;;;;;;;;;;;;;;;5074614;28;19932;-67
2024/02/12 08:11:37;;;;;;;;;;;;;;;;;;5082806;28;19967;-67
2024/02/12 08:14:09;;;;;;;;;;;;;;;;;;5077102;28;19989;-67
2024/02/12 08:16:36;;;;;;;;;;;;;;;;;;5071508;28;20014;-67
2024/02/12 08:19:03;;;;;;;;;;;;;;;;;;5077885;28;19928;-67
2024/02/12 08:21:30;;;;;;;;;;;;;;;;;;5078897;28;20015;-66
2024/02/12 08:23:57;;;;;;;;;;;;;;;;;;5083774;28;20272;-67
2024/02/12 08:26:25;;;;;;;;;;;;;;;;;;5079376;28;19960;-67
2024/02/12 08:28:52;;;;;;;;;;;;;;;;;;5080637;28;19947;-66
2024/02/12 08:31:19;;;;;;;;;;;;;;;;;;5078032;28;20420;-67
2024/02/12 08:33:47;;;;;;;;;;;;;;;;;;5084516;28;19932;-67
2024/02/12 08:36:16;;;;;;;;;;;;;;;;;;5078355;28;19928;-67
2024/02/12 08:38:43;;;;;;;;;;;;;;;;;;5077592;28;19935;-67
2024/02/12 08:41:10;;;;;;;;;;;;;;;;;;5086908;28;19927;-67
2024/02/12 08:43:37;;;;;;;;;;;;;;;;;;5078052;28;20023;-67
2024/02/12 08:46:04;;;;;;;;;;;;;;;;;;5081057;28;20500;-67
2024/02/12 08:48:31;;;;;;;;;;;;;;;;;;5070623;28;19927;-67
2024/02/12 08:50:58;;;;;;;;;;;;;;;;;;5077719;28;19950;-67
2024/02/12 08:53:25;;;;;;;;;;;;;;;;;;5082332;28;20019;-67
2024/02/12 08:55:52;;;;;;;;;;;;;;;;;;5078651;28;19928;-67
2024/02/12 08:58:19;;;;;;;;;;;;;;;;;;5078370;28;19934;-67
2024/02/12 09:00:46;;;;;;;;;;;;;;;;;;5076295;28;20007;-68
2024/02/12 09:03:15;;;;;;;;;;;;;;;;;;5075721;28;19935;-67
2024/02/12 09:05:42;;;;;;;;;;;;;;;;;;5085914;28;19973;-67
2024/02/12 09:08:09;;;;;;;;;;;;;;;;;;5083187;28;20003;-68
2024/02/12 09:10:36;;;;;;;;;;;;;;;;;;5080683;28;19928;-68
2024/02/12 09:13:05;;;;;;;;;;;;;;;;;;5079038;28;19932;-68
2024/02/12 09:15:32;;;;;;;;;;;;;;;;;;5082703;28;19928;-67
2024/02/12 09:17:59;;;;;;;;;;;;;;;;;;5082246;28;20027;-68
2024/02/12 09:20:26;;;;;;;;;;;;;;;;;;5072917;28;20035;-68
2024/02/12 09:22:53;;;;;;;;;;;;;;;;;;5088977;28;20450;-68
2024/02/12 09:25:20;;;;;;;;;;;;;;;;;;5078107;28;19928;-68
2024/02/12 09:27:47;;;;;;;;;;;;;;;;;;5073187;28;20036;-68
2024/02/12 09:30:15;;;;;;;;;;;;;;;;;;5086143;28;19928;-68
2024/02/12 09:32:43;;;;;;;;;;;;;;;;;;5081396;28;20027;-68
2024/02/12 09:35:10;;;;;;;;;;;;;;;;;;5085853;28;20394;-67
2024/02/12 09:37:37;;;;;;;;;;;;;;;;;;5081272;28;20413;-68
2024/02/12 09:40:07;;;;;;;;;;;;;;;;;;5085592;28;19928;-68
2024/02/12 09:42:34;;;;;;;;;;;;;;;;;;5085795;28;19928;-68
2024/02/12 09:45:01;;;;;;;;;;;;;;;;;;5083462;28;19961;-67
2024/02/12 09:47:31;;;;;;;;;;;;;;;;;;5082258;28;20400;-69
2024/02/12 09:49:58;;;;;;;;;;;;;;;;;;5078602;28;20526;-69
2024/02/12 09:52:26;;;;;;;;;;;;;;;;;;5087791;28;19932;-68
2024/02/12 09:54:53;;;;;;;;;;;;;;;;;;5077164;28;19932;-68
2024/02/12 09:57:20;;;;;;;;;;;;;;;;;;5081112;28;19975;-67
2024/02/12 09:59:47;;;;;;;;;;;;;;;;;;5078262;28;19986;-69
2024/02/12 10:02:14;;;;;;;;;;;;;;;;;;5082270;28;19932;-69
2024/02/12 10:04:44;;;;;;;;;;;;;;;;;;5083499;28;19973;-68
2024/02/12 10:07:11;;;;;;;;;;;;;;;;;;5080608;28;19955;-69
2024/02/12 10:09:38;;;;;;;;;;;;;;;;;;5080881;28;20023;-68
2024/02/12 10:12:06;;;;;;;;;;;;;;;;;;5081965;28;20812;-68
2024/02/12 10:14:33;;;;;;;;;;;;;;;;;;5086275;28;19928;-68
2024/02/12 10:17:01;;;;;;;;;;;;;;;;;;5083461;28;19986;-68
2024/02/12 10:19:28;;;;;;;;;;;;;;;;;;5075944;28;19928;-68
2024/02/12 10:21:57;;;;;;;;;;;;;;;;;;5079528;28;19934;-68
2024/02/12 10:24:24;;;;;;;;;;;;;;;;;;5084257;28;20288;-68
2024/02/12 10:26:51;;;;;;;;;;;;;;;;;;5078706;28;20342;-68
2024/02/12 10:29:18;;;;;;;;;;;;;;;;;;5072742;28;19932;-68
2024/02/12 10:31:45;;;;;;;;;;;;;;;;;;5074944;28;19962;-68
2024/02/12 10:34:12;;;;;;;;;;;;;;;;;;5065775;28;20459;-68
2024/02/12 10:36:42;;;;;;;;;;;;;;;;;;5072778;28;20049;-68
2024/02/12 10:39:09;;;;;;;;;;;;;;;;;;5074890;28;20041;-68
2024/02/12 10:41:36;;;;;;;;;;;;;;;;;;5084527;28;19927;-68
2024/02/12 10:44:03;;;;;;;;;;;;;;;;;;5083458;28;20399;-68
2024/02/12 10:46:31;;;;;;;;;;;;;;;;;;5076513;28;20446;-68
2024/02/12 10:48:59;;;;;;;;;;;;;;;;;;5067661;28;19947;-68
2024/02/12 10:51:26;;;;;;;;;;;;;;;;;;5078251;28;20015;-69
2024/02/12 10:53:53;;;;;;;;;;;;;;;;;;5070657;28;19936;-68
2024/02/12 10:56:22;;;;;;;;;;;;;;;;;;5072495;28;20563;-68
2024/02/12 10:58:49;;;;;;;;;;;;;;;;;;5084419;28;19928;-68
2024/02/12 11:01:17;;;;;;;;;;;;;;;;;;5082942;28;20409;-68
2024/02/12 11:03:44;;;;;;;;;;;;;;;;;;5076237;28;19932;-68
2024/02/12 11:06:11;;;;;;;;;;;;;;;;;;5068464;28;19929;-68
2024/02/12 11:08:39;;;;;;;;;;;;;;;;;;5077290;28;19939;-68
2024/02/12 11:11:07;;;;;;;;;;;;;;;;;;5068223;28;19928;-69
2024/02/12 11:13:35;;;;;;;;;;;;;;;;;;5079713;28;19931;-69
2024/02/12 11:16:03;;;;;;;;;;;;;;;;;;5079230;28;19932;-68
2024/02/12 11:18:30;;;;;;;;;;;;;;;;;;5071999;28;19932;-70
2024/02/12 11:20:57;;;;;;;;;;;;;;;;;;5078122;28;19932;-70
2024/02/12 11:23:24;;;;;;;;;;;;;;;;;;5088947;28;19928;-69
2024/02/12 11:25:51;;;;;;;;;;;;;;;;;;5082270;28;19929;-70
2024/02/12 11:28:19;;;;;;;;;;;;;;;;;;5083517;28;19977;-69
2024/02/12 11:30:46;;;;;;;;;;;;;;;;;;5079490;28;19932;-69
2024/02/12 11:33:14;;;;;;;;;;;;;;;;;;5076130;28;20357;-68
2024/02/12 11:35:41;;;;;;;;;;;;;;;;;;5079481;28;20010;-68
2024/02/12 11:38:08;;;;;;;;;;;;;;;;;;5076703;28;20045;-68
2024/02/12 11:40:39;;;;;;;;;;;;;;;;;;5074329;28;19928;-68
2024/02/12 11:43:06;;;;;;;;;;;;;;;;;;5084628;28;20497;-69
2024/02/12 11:45:35;;;;;;;;;;;;;;;;;;5076154;28;19948;-70
2024/02/12 11:48:02;;;;;;;;;;;;;;;;;;5075943;28;19933;-69
2024/02/12 11:50:29;;;;;;;;;;;;;;;;;;5083855;28;20019;-68
2024/02/12 11:52:57;;;;;;;;;;;;;;;;;;5071382;28;20047;-67
2024/02/12 11:55:25;;;;;;;;;;;;;;;;;;5078080;28;19928;-66
2024/02/12 11:57:52;;;;;;;;;;;;;;;;;;5082179;28;19928;-67
2024/02/12 12:00:19;;;;;;;;;;;;;;;;;;5082042;28;19928;-66
2024/02/12 12:02:47;;;;;;;;;;;;;;;;;;5074106;28;20294;-67
2024/02/12 12:05:15;;;;;;;;;;;;;;;;;;5073580;28;19967;-67
2024/02/12 12:07:42;;;;;;;;;;;;;;;;;;5075348;28;19935;-68
2024/02/12 12:10:11;;;;;;;;;;;;;;;;;;5080550;28;19939;-67
2024/02/12 12:12:38;;;;;;;;;;;;;;;;;;5087215;28;20306;-69
2024/02/12 12:15:06;;;;;;;;;;;;;;;;;;5075518;28;19929;-68
2024/02/12 12:17:33;;;;;;;;;;;;;;;;;;5070688;28;19936;-67
2024/02/12 12:20:00;;;;;;;;;;;;;;;;;;5074371;28;19982;-68
2024/02/12 12:22:27;;;;;;;;;;;;;;;;;;5082021;28;20413;-68
2024/02/12 12:24:54;;;;;;;;;;;;;;;;;;5076700;28;19935;-68
2024/02/12 12:27:22;;;;;;;;;;;;;;;;;;5079958;28;20034;-67
2024/02/12 12:29:49;;;;;;;;;;;;;;;;;;5076899;28;19932;-67
2024/02/12 12:32:17;;;;;;;;;;;;;;;;;;5077919;28;20375;-68
2024/02/12 12:34:44;;;;;;;;;;;;;;;;;;5079275;28;20027;-68
2024/02/12 12:37:13;;;;;;;;;;;;;;;;;;5082801;28;19933;-67
2024/02/12 12:39:40;;;;;;;;;;;;;;;;;;5091363;28;19958;-68
2024/02/12 12:42:07;;;;;;;;;;;;;;;;;;5091723;28;20616;-68
2024/02/12 12:44:34;;;;;;;;;;;;;;;;;;5093183;28;19935;-68
2024/02/12 12:47:01;;;;;;;;;;;;;;;;;;5081562;28;20020;-67
2024/02/12 12:49:29;;;;;;;;;;;;;;;;;;5085557;28;20001;-68
2024/02/12 12:51:56;;;;;;;;;;;;;;;;;;5087915;28;20326;-68
2024/02/12 12:54:23;;;;;;;;;;;;;;;;;;5091462;28;19928;-69
2024/02/12 12:56:51;;;;;;;;;;;;;;;;;;5090469;28;20479;-68
2024/02/12 12:59:18;;;;;;;;;;;;;;;;;;5090232;28;19935;-68
2024/02/12 13:01:45;;;;;;;;;;;;;;;;;;5084546;28;20013;-68
2024/02/12 13:04:12;;;;;;;;;;;;;;;;;;5080619;28;19928;-68
2024/02/12 13:06:39;;;;;;;;;;;;;;;;;;5083903;28;19942;-68
2024/02/12 13:09:07;;;;;;;;;;;;;;;;;;5081380;28;20326;-68
2024/02/12 13:11:34;;;;;;;;;;;;;;;;;;5087639;28;19933;-68
2024/02/12 13:14:06;;;;;;;;;;;;;;;;;;5078789;28;19994;-69
2024/02/12 13:16:34;;;;;;;;;;;;;;;;;;5088259;28;19928;-67
2024/02/12 13:19:01;;;;;;;;;;;;;;;;;;5080562;28;20028;-68
2024/02/12 13:21:29;;;;;;;;;;;;;;;;;;5090524;28;19932;-67
2024/02/12 13:23:57;;;;;;;;;;;;;;;;;;5088074;28;19935;-67
2024/02/12 13:26:26;;;;;;;;;;;;;;;;;;5083674;28;19928;-67
2024/02/12 13:28:53;;;;;;;;;;;;;;;;;;5087002;28;19994;-67
2024/02/12 13:31:24;;;;;;;;;;;;;;;;;;5075923;28;19928;-68
2024/02/12 13:33:53;;;;;;;;;;;;;;;;;;5081158;28;20050;-67
2024/02/12 13:36:20;;;;;;;;;;;;;;;;;;5080432;28;20441;-67
2024/02/12 13:38:47;;;;;;;;;;;;;;;;;;5073761;28;19928;-67
2024/02/12 13:41:14;;;;;;;;;;;;;;;;;;5076175;28;20034;-67
2024/02/12 13:43:41;;;;;;;;;;;;;;;;;;5075472;28;19936;-68
2024/02/12 13:46:09;;;;;;;;;;;;;;;;;;5081309;28;20637;-67
2024/02/12 13:48:36;;;;;;;;;;;;;;;;;;5081971;28;20394;-68
2024/02/12 13:51:03;;;;;;;;;;;;;;;;;;5070892;28;19968;-69
2024/02/12 13:53:30;;;;;;;;;;;;;;;;;;5074713;28;20409;-68
2024/02/12 13:55:57;;;;;;;;;;;;;;;;;;5072722;28;20023;-68
2024/02/12 13:58:24;;;;;;;;;;;;;;;;;;5086206;28;21363;-67
2024/02/12 14:00:51;;;;;;;;;;;;;;;;;;5082722;28;19932;-68
2024/02/12 14:03:18;;;;;;;;;;;;;;;;;;5076497;28;20022;-67
2024/02/12 14:05:45;;;;;;;;;;;;;;;;;;5080292;28;20306;-65
2024/02/12 14:08:12;;;;;;;;;;;;;;;;;;5081193;28;19932;-67
2024/02/12 14:10:39;;;;;;;;;;;;;;;;;;5080846;28;20047;-67
2024/02/12 14:13:07;;;;;;;;;;;;;;;;;;5081802;28;19928;-66
2024/02/12 14:15:35;;;;;;;;;;;;;;;;;;5087067;28;19927;-66
2024/02/12 14:18:04;;;;;;;;;;;;;;;;;;5080084;28;19928;-67
2024/02/12 14:20:31;;;;;;;;;;;;;;;;;;5074002;28;19936;-68
2024/02/12 14:22:59;;;;;;;;;;;;;;;;;;5072795;28;20478;-67
2024/02/12 14:25:29;;;;;;;;;;;;;;;;;;5081998;28;19929;-67
2024/02/12 14:27:57;;;;;;;;;;;;;;;;;;5075058;28;19928;-67
2024/02/12 14:30:26;;;;;;;;;;;;;;;;;;5075399;28;19959;-69
2024/02/12 14:32:53;;;;;;;;;;;;;;;;;;5076840;28;19935;-68
2024/02/12 14:35:20;;;;;;;;;;;;;;;;;;5089979;28;20589;-70
2024/02/12 14:37:47;;;;;;;;;;;;;;;;;;5081121;28;19928;-70
2024/02/12 14:40:14;;;;;;;;;;;;;;;;;;5089672;28;20028;-70
2024/02/12 14:42:42;;;;;;;;;;;;;;;;;;5084632;28;20379;-68
2024/02/12 14:45:09;;;;;;;;;;;;;;;;;;5082176;28;19928;-68
2024/02/12 14:47:36;;;;;;;;;;;;;;;;;;5083705;28;19952;-68
2024/02/12 14:50:04;;;;;;;;;;;;;;;;;;5078834;28;20053;-69
2024/02/12 14:52:32;;;;;;;;;;;;;;;;;;5084521;28;19928;-69
2024/02/12 14:54:59;;;;;;;;;;;;;;;;;;5080338;28;20307;-69
2024/02/12 14:57:26;;;;;;;;;;;;;;;;;;5072820;28;19928;-70
2024/02/12 14:59:53;;;;;;;;;;;;;;;;;;5079601;28;20018;-70
2024/02/12 15:02:22;;;;;;;;;;;;;;;;;;5082965;28;20302;-69
2024/02/12 15:04:49;;;;;;;;;;;;;;;;;;5078358;28;19975;-69
2024/02/12 15:07:16;;;;;;;;;;;;;;;;;;5080065;28;19928;-70
2024/02/12 15:09:46;;;;;;;;;;;;;;;;;;5079530;28;20395;-68
2024/02/12 15:12:19;;;;;;;;;;;;;;;;;;5086144;28;20362;-69
2024/02/12 15:14:46;;;;;;;;;;;;;;;;;;5076726;28;19939;-68
2024/02/12 15:17:16;;;;;;;;;;;;;;;;;;5074190;28;19960;-68
2024/02/12 15:19:45;;;;;;;;;;;;;;;;;;5078778;28;19928;-69
2024/02/12 15:22:12;;;;;;;;;;;;;;;;;;5072961;28;21273;-68
2024/02/12 15:24:39;;;;;;;;;;;;;;;;;;5085249;28;19928;-69
2024/02/12 15:27:07;;;;;;;;;;;;;;;;;;5081282;28;19958;-69
2024/02/12 15:29:34;;;;;;;;;;;;;;;;;;5084647;28;19939;-69
2024/02/12 15:32:05;;;;;;;;;;;;;;;;;;5076870;28;19928;-69
2024/02/12 15:34:33;;;;;;;;;;;;;;;;;;5073432;28;20322;-69
2024/02/12 15:37:00;;;;;;;;;;;;;;;;;;5080324;28;20379;-67
2024/02/12 15:39:27;;;;;;;;;;;;;;;;;;5077264;28;20019;-68
2024/02/12 15:41:54;;;;;;;;;;;;;;;;;;5073404;28;20019;-69
2024/02/12 15:44:21;;;;;;;;;;;;;;;;;;5073912;28;19929;-69
2024/02/12 15:46:48;;;;;;;;;;;;;;;;;;5082973;28;20018;-68
2024/02/12 15:49:15;;;;;;;;;;;;;;;;;;5069781;28;20038;-68
2024/02/12 15:51:42;;;;;;;;;;;;;;;;;;5080734;28;20454;-68
2024/02/12 15:54:09;;;;;;;;;;;;;;;;;;5079923;28;19928;-67
2024/02/12 15:56:37;;;;;;;;;;;;;;;;;;5075676;28;20614;-68
2024/02/12 15:59:04;;;;;;;;;;;;;;;;;;5083089;28;19953;-68
2024/02/12 16:01:35;;;;;;;;;;;;;;;;;;5086504;28;19967;-68
2024/02/12 16:04:02;;;;;;;;;;;;;;;;;;5078830;28;20043;-68
2024/02/12 16:06:29;;;;;;;;;;;;;;;;;;5084623;28;20021;-68
2024/02/12 16:08:56;;;;;;;;;;;;;;;;;;5082603;28;20459;-68
2024/02/12 16:11:23;;;;;;;;;;;;;;;;;;5075338;28;20228;-69
2024/02/12 16:13:52;;;;;;;;;;;;;;;;;;5083507;28;20023;-68
2024/02/12 16:16:22;;;;;;;;;;;;;;;;;;5070245;28;19982;-68
2024/02/12 16:18:52;;;;;;;;;;;;;;;;;;5079278;28;19928;-68
2024/02/12 16:21:19;;;;;;;;;;;;;;;;;;5074454;28;20024;-68
2024/02/12 16:23:46;;;;;;;;;;;;;;;;;;5088427;28;20352;-69
2024/02/12 16:26:13;;;;;;;;;;;;;;;;;;5073646;28;19967;-68
2024/02/12 16:28:40;;;;;;;;;;;;;;;;;;5084234;28;20014;-68
2024/02/12 16:31:10;;;;;;;;;;;;;;;;;;5079022;28;19935;-67
2024/02/12 16:33:37;;;;;;;;;;;;;;;;;;5073173;28;19932;-68
2024/02/12 16:36:05;;;;;;;;;;;;;;;;;;5087352;28;19935;-68
2024/02/12 16:38:32;;;;;;;;;;;;;;;;;;5084619;28;19928;-68
2024/02/12 16:40:59;;;;;;;;;;;;;;;;;;5075918;28;19935;-68
2024/02/12 16:43:26;;;;;;;;;;;;;;;;;;5076137;28;19932;-68
2024/02/12 16:45:53;;;;;;;;;;;;;;;;;;5085849;28;19954;-67
2024/02/12 16:48:20;;;;;;;;;;;;;;;;;;5082879;28;19975;-69
2024/02/12 16:50:48;;;;;;;;;;;;;;;;;;5077564;28;19951;-69
2024/02/12 16:53:15;;;;;;;;;;;;;;;;;;5075462;28;19928;-68
2024/02/12 16:55:42;;;;;;;;;;;;;;;;;;5078858;28;19928;-68
2024/02/12 16:58:09;;;;;;;;;;;;;;;;;;5074641;28;20015;-68
2024/02/12 17:00:36;;;;;;;;;;;;;;;;;;5085195;28;20361;-68
2024/02/12 17:03:03;;;;;;;;;;;;;;;;;;5075900;28;20310;-67